< < Back
Terminal Aerodrome Forecast


Current Version              Previous Versions:   1  2  3  4  5  6  7  8  9  

Terminal Aerodrome Forecast

084
FTUS42 KTAE 242320
TAFABY
TAF
KABY 242320Z 2500/2524 25005KT P6SM SCT050=



Latest METAR

665
SAUS70 KWBC 250600 RRE
MTRABY
METAR KABY 250553Z 21003KT 10SM SCT070 26/21 A3006 RMK AO2 SLP177
T02560206 10328 20256 51001


USA.gov is the U.S. government's official web portal to all federal, state and local government web resources and services.